sensor_id;sensor_type;location;lat;lon;timestamp;P1;durP1;ratioP1;P2;durP2;ratioP2
66384;SDS011;53426;55.872;37.462;2023-06-14T00:02:14;8.63;;;5.82;;
66384;SDS011;53426;55.872;37.462;2023-06-14T00:04:42;18.48;;;7.45;;
66384;SDS011;53426;55.872;37.462;2023-06-14T00:07:08;14.88;;;6.20;;
66384;SDS011;53426;55.872;37.462;2023-06-14T00:09:34;12.85;;;6.22;;
66384;SDS011;53426;55.872;37.462;2023-06-14T00:12:01;13.90;;;6.03;;
66384;SDS011;53426;55.872;37.462;2023-06-14T00:14:28;9.90;;;5.72;;
66384;SDS011;53426;55.872;37.462;2023-06-14T00:16:54;23.42;;;6.28;;
66384;SDS011;53426;55.872;37.462;2023-06-14T00:19:26;8.35;;;5.40;;
66384;SDS011;53426;55.872;37.462;2023-06-14T00:21:53;13.02;;;6.30;;
66384;SDS011;53426;55.872;37.462;2023-06-14T00:24:20;10.77;;;6.07;;
66384;SDS011;53426;55.872;37.462;2023-06-14T00:26:46;14.43;;;5.82;;
66384;SDS011;53426;55.872;37.462;2023-06-14T00:29:13;14.65;;;6.05;;
66384;SDS011;53426;55.872;37.462;2023-06-14T00:31:39;10.65;;;5.45;;
66384;SDS011;53426;55.872;37.462;2023-06-14T00:34:05;10.30;;;6.13;;
66384;SDS011;53426;55.872;37.462;2023-06-14T00:36:32;20.35;;;7.30;;
66384;SDS011;53426;55.872;37.462;2023-06-14T00:38:59;18.83;;;8.00;;
66384;SDS011;53426;55.872;37.462;2023-06-14T00:41:25;17.08;;;7.15;;
66384;SDS011;53426;55.872;37.462;2023-06-14T00:43:52;26.52;;;8.68;;
66384;SDS011;53426;55.872;37.462;2023-06-14T00:46:21;23.38;;;7.93;;
66384;SDS011;53426;55.872;37.462;2023-06-14T00:48:49;19.92;;;7.75;;
66384;SDS011;53426;55.872;37.462;2023-06-14T00:51:16;19.35;;;7.40;;
66384;SDS011;53426;55.872;37.462;2023-06-14T00:53:42;20.67;;;8.32;;
66384;SDS011;53426;55.872;37.462;2023-06-14T00:56:13;21.88;;;8.18;;
66384;SDS011;53426;55.872;37.462;2023-06-14T00:58:41;26.20;;;9.20;;
66384;SDS011;53426;55.872;37.462;2023-06-14T01:01:08;23.15;;;9.07;;
66384;SDS011;53426;55.872;37.462;2023-06-14T01:03:34;19.77;;;8.05;;
66384;SDS011;53426;55.872;37.462;2023-06-14T01:11:36;14.95;;;6.55;;
66384;SDS011;53426;55.872;37.462;2023-06-14T01:14:11;15.65;;;6.95;;
66384;SDS011;53426;55.872;37.462;2023-06-14T01:16:39;22.27;;;6.50;;
66384;SDS011;53426;55.872;37.462;2023-06-14T01:19:07;18.00;;;6.00;;
66384;SDS011;53426;55.872;37.462;2023-06-14T01:21:39;12.45;;;5.80;;
66384;SDS011;53426;55.872;37.462;2023-06-14T01:24:08;19.58;;;6.47;;
66384;SDS011;53426;55.872;37.462;2023-06-14T01:26:36;18.50;;;6.10;;
66384;SDS011;53426;55.872;37.462;2023-06-14T01:29:11;19.27;;;6.03;;
66384;SDS011;53426;55.872;37.462;2023-06-14T01:31:42;33.38;;;13.38;;
66384;SDS011;53426;55.872;37.462;2023-06-14T01:34:08;18.05;;;7.20;;
66384;SDS011;53426;55.872;37.462;2023-06-14T01:36:34;14.32;;;6.75;;
66384;SDS011;53426;55.872;37.462;2023-06-14T01:39:04;14.70;;;6.53;;
66384;SDS011;53426;55.872;37.462;2023-06-14T01:41:31;22.35;;;7.00;;
66384;SDS011;53426;55.872;37.462;2023-06-14T01:43:58;13.60;;;6.35;;
66384;SDS011;53426;55.872;37.462;2023-06-14T01:46:25;22.63;;;5.97;;
66384;SDS011;53426;55.872;37.462;2023-06-14T01:48:54;23.58;;;6.60;;
66384;SDS011;53426;55.872;37.462;2023-06-14T01:51:20;24.98;;;6.60;;
66384;SDS011;53426;55.872;37.462;2023-06-14T01:53:48;23.55;;;6.88;;
66384;SDS011;53426;55.872;37.462;2023-06-14T01:56:14;18.50;;;6.55;;
66384;SDS011;53426;55.872;37.462;2023-06-14T01:58:42;14.52;;;6.43;;
66384;SDS011;53426;55.872;37.462;2023-06-14T02:01:10;21.45;;;6.40;;
66384;SDS011;53426;55.872;37.462;2023-06-14T02:03:36;17.38;;;5.95;;
66384;SDS011;53426;55.872;37.462;2023-06-14T02:06:04;24.35;;;6.38;;
66384;SDS011;53426;55.872;37.462;2023-06-14T02:08:30;12.68;;;6.18;;
66384;SDS011;53426;55.872;37.462;2023-06-14T02:10:59;20.52;;;6.38;;
66384;SDS011;53426;55.872;37.462;2023-06-14T02:13:25;14.52;;;5.95;;
66384;SDS011;53426;55.872;37.462;2023-06-14T02:16:12;21.13;;;6.05;;
66384;SDS011;53426;55.872;37.462;2023-06-14T02:18:38;16.73;;;5.80;;
66384;SDS011;53426;55.872;37.462;2023-06-14T02:21:23;11.98;;;6.47;;
66384;SDS011;53426;55.872;37.462;2023-06-14T02:23:49;12.05;;;6.30;;
66384;SDS011;53426;55.872;37.462;2023-06-14T02:26:15;20.27;;;6.80;;
66384;SDS011;53426;55.872;37.462;2023-06-14T02:28:42;7.20;;;5.85;;
66384;SDS011;53426;55.872;37.462;2023-06-14T02:31:08;18.42;;;6.63;;
66384;SDS011;53426;55.872;37.462;2023-06-14T02:33:34;14.45;;;6.70;;
66384;SDS011;53426;55.872;37.462;2023-06-14T02:36:00;21.25;;;7.65;;
66384;SDS011;53426;55.872;37.462;2023-06-14T02:38:28;17.65;;;6.53;;
66384;SDS011;53426;55.872;37.462;2023-06-14T02:40:54;19.33;;;7.15;;
66384;SDS011;53426;55.872;37.462;2023-06-14T02:43:20;18.45;;;6.68;;
66384;SDS011;53426;55.872;37.462;2023-06-14T02:45:46;15.95;;;6.45;;
66384;SDS011;53426;55.872;37.462;2023-06-14T02:48:13;10.40;;;6.00;;
66384;SDS011;53426;55.872;37.462;2023-06-14T02:50:40;11.88;;;6.95;;
66384;SDS011;53426;55.872;37.462;2023-06-14T02:53:06;20.02;;;6.88;;
66384;SDS011;53426;55.872;37.462;2023-06-14T02:55:33;12.15;;;6.32;;
66384;SDS011;53426;55.872;37.462;2023-06-14T02:58:05;21.48;;;6.90;;
66384;SDS011;53426;55.872;37.462;2023-06-14T03:00:35;15.63;;;6.97;;
66384;SDS011;53426;55.872;37.462;2023-06-14T03:03:01;14.98;;;6.15;;
66384;SDS011;53426;55.872;37.462;2023-06-14T03:05:27;14.13;;;6.72;;
66384;SDS011;53426;55.872;37.462;2023-06-14T03:07:55;8.23;;;6.07;;
66384;SDS011;53426;55.872;37.462;2023-06-14T03:10:21;16.85;;;7.07;;
66384;SDS011;53426;55.872;37.462;2023-06-14T03:12:49;20.30;;;7.03;;
66384;SDS011;53426;55.872;37.462;2023-06-14T03:15:17;14.52;;;6.90;;
66384;SDS011;53426;55.872;37.462;2023-06-14T03:17:46;15.07;;;7.90;;
66384;SDS011;53426;55.872;37.462;2023-06-14T03:20:16;20.55;;;8.57;;
66384;SDS011;53426;55.872;37.462;2023-06-14T03:22:43;20.60;;;8.85;;
66384;SDS011;53426;55.872;37.462;2023-06-14T03:25:11;29.27;;;8.65;;
66384;SDS011;53426;55.872;37.462;2023-06-14T03:27:39;24.70;;;8.07;;
66384;SDS011;53426;55.872;37.462;2023-06-14T03:30:06;20.48;;;7.80;;
66384;SDS011;53426;55.872;37.462;2023-06-14T03:32:34;19.98;;;7.68;;
66384;SDS011;53426;55.872;37.462;2023-06-14T03:35:01;22.25;;;7.82;;
66384;SDS011;53426;55.872;37.462;2023-06-14T03:37:29;28.30;;;9.20;;
66384;SDS011;53426;55.872;37.462;2023-06-14T03:39:55;33.75;;;8.75;;
66384;SDS011;53426;55.872;37.462;2023-06-14T03:42:23;26.95;;;8.80;;
66384;SDS011;53426;55.872;37.462;2023-06-14T03:44:49;32.67;;;9.45;;
66384;SDS011;53426;55.872;37.462;2023-06-14T03:47:19;35.08;;;9.68;;
66384;SDS011;53426;55.872;37.462;2023-06-14T03:49:50;25.15;;;9.30;;
66384;SDS011;53426;55.872;37.462;2023-06-14T03:52:16;23.33;;;8.52;;
66384;SDS011;53426;55.872;37.462;2023-06-14T03:55:02;31.35;;;8.23;;
66384;SDS011;53426;55.872;37.462;2023-06-14T03:57:30;32.60;;;8.63;;
66384;SDS011;53426;55.872;37.462;2023-06-14T03:59:58;27.58;;;7.15;;
66384;SDS011;53426;55.872;37.462;2023-06-14T04:02:27;21.75;;;6.20;;
66384;SDS011;53426;55.872;37.462;2023-06-14T04:05:37;16.48;;;6.00;;
66384;SDS011;53426;55.872;37.462;2023-06-14T04:08:08;26.98;;;6.18;;
66384;SDS011;53426;55.872;37.462;2023-06-14T04:10:35;15.07;;;6.15;;
66384;SDS011;53426;55.872;37.462;2023-06-14T04:13:01;27.67;;;6.38;;
66384;SDS011;53426;55.872;37.462;2023-06-14T04:15:27;18.30;;;7.10;;
66384;SDS011;53426;55.872;37.462;2023-06-14T04:17:58;30.00;;;5.95;;
66384;SDS011;53426;55.872;37.462;2023-06-14T04:20:24;23.15;;;5.85;;
66384;SDS011;53426;55.872;37.462;2023-06-14T04:23:10;20.40;;;6.13;;
66384;SDS011;53426;55.872;37.462;2023-06-14T04:25:41;16.92;;;5.40;;
66384;SDS011;53426;55.872;37.462;2023-06-14T04:28:11;19.90;;;5.43;;
66384;SDS011;53426;55.872;37.462;2023-06-14T04:30:43;15.60;;;5.53;;
66384;SDS011;53426;55.872;37.462;2023-06-14T04:33:10;15.85;;;5.70;;
66384;SDS011;53426;55.872;37.462;2023-06-14T04:35:40;13.25;;;5.35;;
66384;SDS011;53426;55.872;37.462;2023-06-14T04:38:06;17.00;;;5.50;;
66384;SDS011;53426;55.872;37.462;2023-06-14T04:40:43;14.68;;;5.15;;
66384;SDS011;53426;55.872;37.462;2023-06-14T04:43:11;14.35;;;4.75;;
66384;SDS011;53426;55.872;37.462;2023-06-14T04:45:46;12.95;;;4.65;;
66384;SDS011;53426;55.872;37.462;2023-06-14T04:48:13;15.30;;;4.68;;
66384;SDS011;53426;55.872;37.462;2023-06-14T04:50:39;12.25;;;4.38;;
66384;SDS011;53426;55.872;37.462;2023-06-14T04:53:10;24.80;;;4.80;;
66384;SDS011;53426;55.872;37.462;2023-06-14T04:55:37;14.02;;;6.00;;
66384;SDS011;53426;55.872;37.462;2023-06-14T04:58:04;16.52;;;6.00;;
66384;SDS011;53426;55.872;37.462;2023-06-14T05:00:31;14.18;;;5.38;;
66384;SDS011;53426;55.872;37.462;2023-06-14T05:02:57;14.77;;;5.30;;
66384;SDS011;53426;55.872;37.462;2023-06-14T05:05:24;13.98;;;4.68;;
66384;SDS011;53426;55.872;37.462;2023-06-14T05:07:57;12.40;;;4.53;;
66384;SDS011;53426;55.872;37.462;2023-06-14T05:10:29;13.60;;;4.50;;
66384;SDS011;53426;55.872;37.462;2023-06-14T05:12:55;13.32;;;4.65;;
66384;SDS011;53426;55.872;37.462;2023-06-14T05:15:21;8.32;;;4.75;;
66384;SDS011;53426;55.872;37.462;2023-06-14T05:17:50;8.27;;;4.22;;
66384;SDS011;53426;55.872;37.462;2023-06-14T05:20:21;16.35;;;5.53;;
66384;SDS011;53426;55.872;37.462;2023-06-14T05:22:53;15.88;;;4.90;;
66384;SDS011;53426;55.872;37.462;2023-06-14T05:25:20;9.82;;;4.13;;
66384;SDS011;53426;55.872;37.462;2023-06-14T05:27:47;20.45;;;4.75;;
66384;SDS011;53426;55.872;37.462;2023-06-14T05:30:13;8.38;;;4.88;;
66384;SDS011;53426;55.872;37.462;2023-06-14T05:32:41;7.03;;;4.32;;
66384;SDS011;53426;55.872;37.462;2023-06-14T05:35:07;10.70;;;3.95;;
66384;SDS011;53426;55.872;37.462;2023-06-14T05:37:36;7.35;;;4.43;;
66384;SDS011;53426;55.872;37.462;2023-06-14T05:40:03;8.00;;;3.80;;
66384;SDS011;53426;55.872;37.462;2023-06-14T05:42:38;6.45;;;4.07;;
66384;SDS011;53426;55.872;37.462;2023-06-14T05:45:04;10.73;;;3.60;;
66384;SDS011;53426;55.872;37.462;2023-06-14T05:47:31;8.15;;;3.40;;
66384;SDS011;53426;55.872;37.462;2023-06-14T05:49:57;14.30;;;4.22;;
66384;SDS011;53426;55.872;37.462;2023-06-14T05:52:23;11.77;;;3.78;;
66384;SDS011;53426;55.872;37.462;2023-06-14T05:54:50;9.70;;;3.65;;
66384;SDS011;53426;55.872;37.462;2023-06-14T05:57:16;3.17;;;2.88;;
66384;SDS011;53426;55.872;37.462;2023-06-14T05:59:47;7.10;;;3.58;;
66384;SDS011;53426;55.872;37.462;2023-06-14T06:14:21;5.95;;;3.05;;
66384;SDS011;53426;55.872;37.462;2023-06-14T06:16:48;5.35;;;3.10;;
66384;SDS011;53426;55.872;37.462;2023-06-14T06:19:19;12.02;;;3.20;;
66384;SDS011;53426;55.872;37.462;2023-06-14T06:21:44;9.30;;;2.70;;
66384;SDS011;53426;55.872;37.462;2023-06-14T06:24:11;3.08;;;2.67;;
66384;SDS011;53426;55.872;37.462;2023-06-14T06:26:37;3.53;;;3.22;;
66384;SDS011;53426;55.872;37.462;2023-06-14T06:29:05;10.27;;;3.22;;
66384;SDS011;53426;55.872;37.462;2023-06-14T06:31:37;2.97;;;2.65;;
66384;SDS011;53426;55.872;37.462;2023-06-14T06:34:03;7.72;;;2.60;;
66384;SDS011;53426;55.872;37.462;2023-06-14T06:39:24;4.75;;;2.67;;
66384;SDS011;53426;55.872;37.462;2023-06-14T06:41:54;2.95;;;2.72;;
66384;SDS011;53426;55.872;37.462;2023-06-14T06:44:31;2.88;;;2.47;;
66384;SDS011;53426;55.872;37.462;2023-06-14T06:46:57;4.13;;;2.45;;
66384;SDS011;53426;55.872;37.462;2023-06-14T06:52:19;4.38;;;2.47;;
66384;SDS011;53426;55.872;37.462;2023-06-14T06:54:45;6.97;;;2.63;;
66384;SDS011;53426;55.872;37.462;2023-06-14T07:00:12;3.50;;;2.85;;
66384;SDS011;53426;55.872;37.462;2023-06-14T07:02:38;6.72;;;2.92;;
66384;SDS011;53426;55.872;37.462;2023-06-14T07:05:04;6.75;;;2.88;;
66384;SDS011;53426;55.872;37.462;2023-06-14T07:07:45;3.40;;;2.75;;
66384;SDS011;53426;55.872;37.462;2023-06-14T07:10:44;4.22;;;3.22;;
66384;SDS011;53426;55.872;37.462;2023-06-14T07:13:10;7.55;;;2.80;;
66384;SDS011;53426;55.872;37.462;2023-06-14T07:15:37;9.50;;;2.85;;
66384;SDS011;53426;55.872;37.462;2023-06-14T07:18:03;9.80;;;2.80;;
66384;SDS011;53426;55.872;37.462;2023-06-14T07:20:30;12.30;;;2.80;;
66384;SDS011;53426;55.872;37.462;2023-06-14T07:22:59;3.22;;;2.80;;
66384;SDS011;53426;55.872;37.462;2023-06-14T07:25:28;6.13;;;2.40;;
66384;SDS011;53426;55.872;37.462;2023-06-14T07:29:44;5.63;;;2.72;;
66384;SDS011;53426;55.872;37.462;2023-06-14T07:35:13;2.85;;;2.35;;
66384;SDS011;53426;55.872;37.462;2023-06-14T07:41:12;3.67;;;2.60;;
66384;SDS011;53426;55.872;37.462;2023-06-14T07:45:06;8.23;;;2.78;;
66384;SDS011;53426;55.872;37.462;2023-06-14T07:47:36;2.90;;;2.40;;
66384;SDS011;53426;55.872;37.462;2023-06-14T07:54:19;3.03;;;2.45;;
66384;SDS011;53426;55.872;37.462;2023-06-14T08:06:22;3.42;;;2.35;;
66384;SDS011;53426;55.872;37.462;2023-06-14T08:36:21;7.30;;;3.67;;
66384;SDS011;53426;55.872;37.462;2023-06-14T08:38:48;5.68;;;2.50;;
66384;SDS011;53426;55.872;37.462;2023-06-14T08:41:20;6.70;;;2.53;;
66384;SDS011;53426;55.872;37.462;2023-06-14T08:46:42;14.77;;;3.45;;
66384;SDS011;53426;55.872;37.462;2023-06-14T08:49:11;5.13;;;2.80;;
66384;SDS011;53426;55.872;37.462;2023-06-14T08:51:37;3.88;;;2.33;;
66384;SDS011;53426;55.872;37.462;2023-06-14T09:03:13;5.10;;;2.75;;
66384;SDS011;53426;55.872;37.462;2023-06-14T09:05:44;4.15;;;2.78;;
66384;SDS011;53426;55.872;37.462;2023-06-14T09:14:02;3.92;;;2.72;;
66384;SDS011;53426;55.872;37.462;2023-06-14T09:16:28;15.52;;;2.53;;
66384;SDS011;53426;55.872;37.462;2023-06-14T09:27:59;3.00;;;2.42;;
66384;SDS011;53426;55.872;37.462;2023-06-14T09:30:27;3.50;;;2.47;;
66384;SDS011;53426;55.872;37.462;2023-06-14T09:32:54;4.75;;;2.97;;
66384;SDS011;53426;55.872;37.462;2023-06-14T09:35:20;4.22;;;3.22;;
66384;SDS011;53426;55.872;37.462;2023-06-14T09:43:29;4.25;;;2.90;;
66384;SDS011;53426;55.872;37.462;2023-06-14T09:49:38;6.55;;;5.70;;
66384;SDS011;53426;55.872;37.462;2023-06-14T09:52:05;3.60;;;2.75;;
66384;SDS011;53426;55.872;37.462;2023-06-14T10:12:50;6.28;;;2.63;;
66384;SDS011;53426;55.872;37.462;2023-06-14T10:21:08;5.03;;;2.60;;
66384;SDS011;53426;55.872;37.462;2023-06-14T10:33:13;3.53;;;2.60;;
66384;SDS011;53426;55.872;37.462;2023-06-14T10:38:39;3.25;;;2.92;;
66384;SDS011;53426;55.872;37.462;2023-06-14T10:41:08;2.67;;;2.47;;
66384;SDS011;53426;55.872;37.462;2023-06-14T10:47:33;4.05;;;3.30;;
66384;SDS011;53426;55.872;37.462;2023-06-14T10:52:56;9.02;;;2.50;;
66384;SDS011;53426;55.872;37.462;2023-06-14T10:55:22;8.07;;;3.70;;
66384;SDS011;53426;55.872;37.462;2023-06-14T10:57:49;5.10;;;2.60;;
66384;SDS011;53426;55.872;37.462;2023-06-14T11:00:22;5.72;;;2.83;;
66384;SDS011;53426;55.872;37.462;2023-06-14T11:02:51;7.60;;;2.67;;
66384;SDS011;53426;55.872;37.462;2023-06-14T11:11:09;4.05;;;2.63;;
66384;SDS011;53426;55.872;37.462;2023-06-14T11:22:19;4.63;;;3.03;;
66384;SDS011;53426;55.872;37.462;2023-06-14T11:24:49;5.20;;;3.00;;
66384;SDS011;53426;55.872;37.462;2023-06-14T11:27:15;3.20;;;2.97;;
66384;SDS011;53426;55.872;37.462;2023-06-14T11:29:47;7.82;;;3.25;;
66384;SDS011;53426;55.872;37.462;2023-06-14T11:32:14;4.13;;;2.85;;
66384;SDS011;53426;55.872;37.462;2023-06-14T11:34:40;5.43;;;3.33;;
66384;SDS011;53426;55.872;37.462;2023-06-14T11:37:06;4.28;;;2.65;;
66384;SDS011;53426;55.872;37.462;2023-06-14T11:39:35;5.20;;;2.80;;
66384;SDS011;53426;55.872;37.462;2023-06-14T11:42:01;4.93;;;3.03;;
66384;SDS011;53426;55.872;37.462;2023-06-14T11:44:28;4.25;;;2.88;;
66384;SDS011;53426;55.872;37.462;2023-06-14T11:56:13;5.72;;;3.33;;
66384;SDS011;53426;55.872;37.462;2023-06-14T11:58:51;5.38;;;2.75;;
66384;SDS011;53426;55.872;37.462;2023-06-14T12:02:24;4.15;;;2.85;;
66384;SDS011;53426;55.872;37.462;2023-06-14T12:04:53;3.35;;;2.95;;
66384;SDS011;53426;55.872;37.462;2023-06-14T12:11:44;3.65;;;2.60;;
66384;SDS011;53426;55.872;37.462;2023-06-14T12:14:10;4.40;;;4.05;;
66384;SDS011;53426;55.872;37.462;2023-06-14T12:16:39;6.80;;;4.72;;
66384;SDS011;53426;55.872;37.462;2023-06-14T12:23:48;4.97;;;2.50;;
66384;SDS011;53426;55.872;37.462;2023-06-14T12:26:17;3.58;;;3.28;;
66384;SDS011;53426;55.872;37.462;2023-06-14T12:28:54;3.55;;;2.90;;
66384;SDS011;53426;55.872;37.462;2023-06-14T12:31:34;5.70;;;2.90;;
66384;SDS011;53426;55.872;37.462;2023-06-14T12:53:17;4.28;;;3.67;;
66384;SDS011;53426;55.872;37.462;2023-06-14T12:55:43;4.75;;;3.20;;
66384;SDS011;53426;55.872;37.462;2023-06-14T12:58:09;7.68;;;3.10;;
66384;SDS011;53426;55.872;37.462;2023-06-14T13:00:47;3.78;;;2.80;;
66384;SDS011;53426;55.872;37.462;2023-06-14T13:03:16;2.85;;;2.65;;
66384;SDS011;53426;55.872;37.462;2023-06-14T13:08:20;3.95;;;2.90;;
66384;SDS011;53426;55.872;37.462;2023-06-14T13:10:49;4.80;;;3.20;;
66384;SDS011;53426;55.872;37.462;2023-06-14T13:13:15;5.32;;;2.72;;
66384;SDS011;53426;55.872;37.462;2023-06-14T13:19:13;6.68;;;3.30;;
66384;SDS011;53426;55.872;37.462;2023-06-14T13:24:57;5.47;;;2.97;;
66384;SDS011;53426;55.872;37.462;2023-06-14T13:27:30;7.57;;;2.95;;
66384;SDS011;53426;55.872;37.462;2023-06-14T13:29:58;3.83;;;2.88;;
66384;SDS011;53426;55.872;37.462;2023-06-14T13:38:02;4.90;;;2.63;;
66384;SDS011;53426;55.872;37.462;2023-06-14T13:43:46;6.10;;;3.47;;
66384;SDS011;53426;55.872;37.462;2023-06-14T13:46:12;8.98;;;3.25;;
66384;SDS011;53426;55.872;37.462;2023-06-14T13:54:30;4.82;;;2.60;;
66384;SDS011;53426;55.872;37.462;2023-06-14T14:00:10;4.95;;;3.83;;
66384;SDS011;53426;55.872;37.462;2023-06-14T14:09:10;4.05;;;3.70;;
66384;SDS011;53426;55.872;37.462;2023-06-14T14:11:37;2.92;;;2.67;;
66384;SDS011;53426;55.872;37.462;2023-06-14T14:16:56;7.63;;;3.03;;
66384;SDS011;53426;55.872;37.462;2023-06-14T14:19:22;6.07;;;3.10;;
66384;SDS011;53426;55.872;37.462;2023-06-14T14:21:51;3.15;;;2.70;;
66384;SDS011;53426;55.872;37.462;2023-06-14T14:31:06;9.80;;;5.18;;
66384;SDS011;53426;55.872;37.462;2023-06-14T14:33:36;3.40;;;3.10;;
66384;SDS011;53426;55.872;37.462;2023-06-14T14:36:04;7.20;;;2.88;;
66384;SDS011;53426;55.872;37.462;2023-06-14T14:38:32;3.63;;;3.03;;
66384;SDS011;53426;55.872;37.462;2023-06-14T14:40:59;4.60;;;3.78;;
66384;SDS011;53426;55.872;37.462;2023-06-14T14:43:25;4.30;;;2.70;;
66384;SDS011;53426;55.872;37.462;2023-06-14T14:45:56;4.38;;;3.95;;
66384;SDS011;53426;55.872;37.462;2023-06-14T14:48:22;10.93;;;5.13;;
66384;SDS011;53426;55.872;37.462;2023-06-14T14:50:49;3.22;;;2.92;;
66384;SDS011;53426;55.872;37.462;2023-06-14T14:53:47;3.88;;;3.47;;
66384;SDS011;53426;55.872;37.462;2023-06-14T14:56:13;6.05;;;3.50;;
66384;SDS011;53426;55.872;37.462;2023-06-14T15:01:36;4.97;;;2.83;;
66384;SDS011;53426;55.872;37.462;2023-06-14T15:04:02;6.53;;;4.22;;
66384;SDS011;53426;55.872;37.462;2023-06-14T15:06:28;7.25;;;3.22;;
66384;SDS011;53426;55.872;37.462;2023-06-14T15:08:54;7.13;;;2.70;;
66384;SDS011;53426;55.872;37.462;2023-06-14T15:11:20;4.88;;;2.65;;
66384;SDS011;53426;55.872;37.462;2023-06-14T15:14:13;3.90;;;3.15;;
66384;SDS011;53426;55.872;37.462;2023-06-14T15:16:43;5.03;;;4.55;;
66384;SDS011;53426;55.872;37.462;2023-06-14T15:19:09;3.90;;;3.08;;
66384;SDS011;53426;55.872;37.462;2023-06-14T15:21:38;7.97;;;3.58;;
66384;SDS011;53426;55.872;37.462;2023-06-14T15:24:06;3.15;;;2.72;;
66384;SDS011;53426;55.872;37.462;2023-06-14T15:26:44;7.13;;;4.47;;
66384;SDS011;53426;55.872;37.462;2023-06-14T15:29:19;4.35;;;3.65;;
66384;SDS011;53426;55.872;37.462;2023-06-14T15:37:57;8.85;;;3.10;;
66384;SDS011;53426;55.872;37.462;2023-06-14T15:40:24;3.30;;;3.00;;
66384;SDS011;53426;55.872;37.462;2023-06-14T15:42:51;5.88;;;3.17;;
66384;SDS011;53426;55.872;37.462;2023-06-14T15:45:24;9.35;;;3.45;;
66384;SDS011;53426;55.872;37.462;2023-06-14T15:47:50;5.97;;;3.00;;
66384;SDS011;53426;55.872;37.462;2023-06-14T15:50:16;6.53;;;3.08;;
66384;SDS011;53426;55.872;37.462;2023-06-14T15:52:42;7.53;;;3.05;;
66384;SDS011;53426;55.872;37.462;2023-06-14T15:55:11;3.22;;;2.90;;
66384;SDS011;53426;55.872;37.462;2023-06-14T15:57:37;4.45;;;2.75;;
66384;SDS011;53426;55.872;37.462;2023-06-14T16:00:05;5.72;;;2.65;;
66384;SDS011;53426;55.872;37.462;2023-06-14T16:02:32;7.70;;;2.80;;
66384;SDS011;53426;55.872;37.462;2023-06-14T16:04:58;2.78;;;2.58;;
66384;SDS011;53426;55.872;37.462;2023-06-14T16:07:24;8.35;;;3.13;;
66384;SDS011;53426;55.872;37.462;2023-06-14T16:09:50;5.38;;;3.03;;
66384;SDS011;53426;55.872;37.462;2023-06-14T16:12:16;5.43;;;2.88;;
66384;SDS011;53426;55.872;37.462;2023-06-14T16:14:42;6.38;;;4.80;;
66384;SDS011;53426;55.872;37.462;2023-06-14T16:20:52;6.20;;;2.70;;
66384;SDS011;53426;55.872;37.462;2023-06-14T16:23:22;13.50;;;3.17;;
66384;SDS011;53426;55.872;37.462;2023-06-14T16:25:57;5.28;;;2.90;;
66384;SDS011;53426;55.872;37.462;2023-06-14T16:28:23;3.17;;;2.97;;
66384;SDS011;53426;55.872;37.462;2023-06-14T16:30:49;8.50;;;4.82;;
66384;SDS011;53426;55.872;37.462;2023-06-14T16:33:19;5.63;;;3.58;;
66384;SDS011;53426;55.872;37.462;2023-06-14T16:35:48;9.35;;;3.97;;
66384;SDS011;53426;55.872;37.462;2023-06-14T16:38:13;8.63;;;3.75;;
66384;SDS011;53426;55.872;37.462;2023-06-14T16:40:39;4.03;;;2.90;;
66384;SDS011;53426;55.872;37.462;2023-06-14T16:43:11;6.68;;;4.40;;
66384;SDS011;53426;55.872;37.462;2023-06-14T16:45:37;4.68;;;3.35;;
66384;SDS011;53426;55.872;37.462;2023-06-14T16:48:05;4.03;;;3.72;;
66384;SDS011;53426;55.872;37.462;2023-06-14T16:50:31;11.77;;;5.90;;
66384;SDS011;53426;55.872;37.462;2023-06-14T16:53:14;8.00;;;4.22;;
66384;SDS011;53426;55.872;37.462;2023-06-14T16:55:41;13.73;;;5.93;;
66384;SDS011;53426;55.872;37.462;2023-06-14T16:58:10;10.23;;;5.60;;
66384;SDS011;53426;55.872;37.462;2023-06-14T17:00:35;13.40;;;4.25;;
66384;SDS011;53426;55.872;37.462;2023-06-14T17:03:02;8.13;;;3.60;;
66384;SDS011;53426;55.872;37.462;2023-06-14T17:05:31;7.50;;;3.38;;
66384;SDS011;53426;55.872;37.462;2023-06-14T17:07:58;5.57;;;3.30;;
66384;SDS011;53426;55.872;37.462;2023-06-14T17:10:28;7.85;;;4.03;;
66384;SDS011;53426;55.872;37.462;2023-06-14T17:12:56;4.72;;;3.10;;
66384;SDS011;53426;55.872;37.462;2023-06-14T17:16:48;5.57;;;3.05;;
66384;SDS011;53426;55.872;37.462;2023-06-14T17:47:28;11.15;;;3.88;;
66384;SDS011;53426;55.872;37.462;2023-06-14T17:49:55;13.18;;;3.70;;
66384;SDS011;53426;55.872;37.462;2023-06-14T17:52:23;9.23;;;3.45;;
66384;SDS011;53426;55.872;37.462;2023-06-14T17:54:58;11.60;;;3.92;;
66384;SDS011;53426;55.872;37.462;2023-06-14T17:57:28;8.93;;;4.20;;
66384;SDS011;53426;55.872;37.462;2023-06-14T18:00:10;12.60;;;3.97;;
66384;SDS011;53426;55.872;37.462;2023-06-14T18:02:45;13.30;;;4.22;;
66384;SDS011;53426;55.872;37.462;2023-06-14T18:11:44;11.10;;;4.40;;
66384;SDS011;53426;55.872;37.462;2023-06-14T18:17:05;10.35;;;4.30;;
66384;SDS011;53426;55.872;37.462;2023-06-14T18:23:00;10.82;;;4.70;;
66384;SDS011;53426;55.872;37.462;2023-06-14T18:25:26;22.02;;;6.57;;
66384;SDS011;53426;55.872;37.462;2023-06-14T18:28:27;13.75;;;5.35;;
66384;SDS011;53426;55.872;37.462;2023-06-14T18:30:53;16.80;;;5.07;;
66384;SDS011;53426;55.872;37.462;2023-06-14T18:33:25;14.10;;;4.72;;
66384;SDS011;53426;55.872;37.462;2023-06-14T18:35:51;14.20;;;5.35;;
66384;SDS011;53426;55.872;37.462;2023-06-14T18:38:17;9.25;;;4.03;;
66384;SDS011;53426;55.872;37.462;2023-06-14T18:40:46;11.95;;;4.25;;
66384;SDS011;53426;55.872;37.462;2023-06-14T18:47:25;16.80;;;4.55;;
66384;SDS011;53426;55.872;37.462;2023-06-14T18:49:51;11.57;;;4.13;;
66384;SDS011;53426;55.872;37.462;2023-06-14T18:52:17;8.68;;;3.92;;
66384;SDS011;53426;55.872;37.462;2023-06-14T18:54:44;18.25;;;4.20;;
66384;SDS011;53426;55.872;37.462;2023-06-14T18:57:31;13.20;;;5.05;;
66384;SDS011;53426;55.872;37.462;2023-06-14T18:59:58;14.15;;;4.28;;
66384;SDS011;53426;55.872;37.462;2023-06-14T19:05:23;18.70;;;5.10;;
66384;SDS011;53426;55.872;37.462;2023-06-14T19:07:51;8.80;;;4.60;;
66384;SDS011;53426;55.872;37.462;2023-06-14T19:10:18;9.45;;;3.97;;
66384;SDS011;53426;55.872;37.462;2023-06-14T19:12:45;13.77;;;4.38;;
66384;SDS011;53426;55.872;37.462;2023-06-14T19:15:11;9.82;;;3.92;;
66384;SDS011;53426;55.872;37.462;2023-06-14T19:17:40;19.42;;;4.10;;
66384;SDS011;53426;55.872;37.462;2023-06-14T19:20:06;15.85;;;5.43;;
66384;SDS011;53426;55.872;37.462;2023-06-14T19:22:33;8.13;;;4.55;;
66384;SDS011;53426;55.872;37.462;2023-06-14T19:29:17;16.90;;;6.15;;
66384;SDS011;53426;55.872;37.462;2023-06-14T19:31:44;11.52;;;5.03;;
66384;SDS011;53426;55.872;37.462;2023-06-14T19:34:10;17.17;;;4.97;;
66384;SDS011;53426;55.872;37.462;2023-06-14T19:36:37;12.15;;;5.28;;
66384;SDS011;53426;55.872;37.462;2023-06-14T19:39:06;13.55;;;4.78;;
66384;SDS011;53426;55.872;37.462;2023-06-14T19:41:33;16.13;;;5.20;;
66384;SDS011;53426;55.872;37.462;2023-06-14T19:44:03;14.75;;;6.35;;
66384;SDS011;53426;55.872;37.462;2023-06-14T19:46:32;22.60;;;7.28;;
66384;SDS011;53426;55.872;37.462;2023-06-14T19:52:49;24.15;;;6.95;;
66384;SDS011;53426;55.872;37.462;2023-06-14T19:55:20;18.45;;;6.03;;
66384;SDS011;53426;55.872;37.462;2023-06-14T20:00:59;21.17;;;6.75;;
66384;SDS011;53426;55.872;37.462;2023-06-14T20:06:25;15.05;;;5.20;;
66384;SDS011;53426;55.872;37.462;2023-06-14T20:08:52;20.67;;;5.68;;